createdAt,value
2017-08-21T00:00:35.568Z,30.6
2017-08-21T00:01:35.626Z,30.6
2017-08-21T00:02:38.558Z,30.6
2017-08-21T00:03:35.483Z,30.6
2017-08-21T00:04:35.744Z,30.6
2017-08-21T00:05:35.499Z,30.6
2017-08-21T00:06:35.571Z,30.6
2017-08-21T00:07:40.864Z,30.6
2017-08-21T00:08:38.514Z,30.6
2017-08-21T00:09:36.045Z,30.6
2017-08-21T00:10:41.122Z,30.6
2017-08-21T00:11:41.189Z,30.6
2017-08-21T00:12:41.300Z,30.6
2017-08-21T00:13:40.939Z,30.6
2017-08-21T00:14:38.864Z,30.6
2017-08-21T00:15:39.180Z,30.6
2017-08-21T00:16:38.948Z,30.6
2017-08-21T00:17:36.159Z,30.6
2017-08-21T00:18:36.567Z,30.6
2017-08-21T00:19:41.630Z,30.6
2017-08-21T00:20:36.393Z,30.6
2017-08-21T00:21:36.785Z,30.6
2017-08-21T00:22:41.538Z,30.6
2017-08-21T00:23:41.618Z,30.6
2017-08-21T00:24:36.948Z,30.6
2017-08-21T00:25:36.693Z,30.6
2017-08-21T00:26:39.944Z,30.6
2017-08-21T00:27:36.793Z,30.6
2017-08-21T00:28:37.082Z,30.5
2017-08-21T00:29:40.001Z,30.6
2017-08-21T00:30:41.855Z,30.6
2017-08-21T00:31:37.304Z,30.6
2017-08-21T00:32:40.177Z,30.6
2017-08-21T00:33:37.092Z,30.6
2017-08-21T00:34:37.454Z,30.6
2017-08-21T00:35:42.494Z,30.6
2017-08-21T00:36:42.564Z,30.6
2017-08-21T00:37:41.203Z,30.6
2017-08-21T00:38:42.674Z,30.6
2017-08-21T00:39:37.714Z,30.5
2017-08-21T00:40:37.803Z,30.6
2017-08-21T00:41:37.556Z,30.6
2017-08-21T00:42:37.938Z,30.5
2017-08-21T00:43:38.017Z,30.5
2017-08-21T00:44:40.612Z,30.6
2017-08-21T00:45:40.648Z,30.5
2017-08-21T00:46:38.180Z,30.5
2017-08-21T00:47:42.807Z,30.5
2017-08-21T00:48:42.875Z,30.5
2017-08-21T00:49:40.775Z,30.5
2017-08-21T00:50:40.831Z,30.5
2017-08-21T00:51:38.343Z,30.5
2017-08-21T00:52:38.089Z,30.5
2017-08-21T00:53:38.451Z,30.5
2017-08-21T00:54:43.482Z,30.5
2017-08-21T00:55:43.208Z,30.5
2017-08-21T00:56:43.255Z,30.5
2017-08-21T00:57:43.630Z,30.5
2017-08-21T00:58:43.371Z,30.5
2017-08-21T00:59:38.755Z,30.5
2017-08-21T01:00:38.839Z,30.5
2017-08-21T01:01:38.623Z,30.5
2017-08-21T01:02:41.818Z,30.5
2017-08-21T01:03:38.990Z,30.5
2017-08-21T01:04:39.064Z,30.5
2017-08-21T01:05:43.788Z,30.5
2017-08-21T01:06:43.855Z,30.5
2017-08-21T01:07:39.255Z,30.5
2017-08-21T01:08:43.971Z,30.5
2017-08-21T01:09:44.316Z,30.5
2017-08-21T01:10:42.263Z,30.5
2017-08-21T01:11:44.436Z,30.5
2017-08-21T01:12:42.468Z,30.5
2017-08-21T01:13:43.055Z,30.5
2017-08-21T01:14:39.618Z,30.5
2017-08-21T01:15:43.087Z,30.5
2017-08-21T01:16:45.925Z,30.5
2017-08-21T01:17:42.852Z,30.5
2017-08-21T01:18:45.420Z,30.5
2017-08-21T01:19:45.351Z,30.5
2017-08-21T01:20:43.652Z,30.5
2017-08-21T01:21:45.087Z,30.5
2017-08-21T01:22:39.750Z,30.5
2017-08-21T01:23:39.825Z,30.5
2017-08-21T01:24:40.229Z,30.5
2017-08-21T01:25:39.902Z,30.5
2017-08-21T01:26:45.024Z,30.5
2017-08-21T01:27:40.373Z,30.5
2017-08-21T01:28:43.178Z,30.5
2017-08-21T01:29:40.328Z,30.5
2017-08-21T01:30:40.937Z,30.5
2017-08-21T01:31:40.549Z,30.5
2017-08-21T01:32:46.155Z,30.5
2017-08-21T01:33:46.718Z,30.5
2017-08-21T01:34:40.920Z,30.5
2017-08-21T01:35:46.031Z,30.5
2017-08-21T01:36:45.601Z,30.5
2017-08-21T01:37:43.744Z,30.5
2017-08-21T01:38:42.862Z,30.5
2017-08-21T01:39:43.422Z,30.5
2017-08-21T01:40:41.775Z,30.5
2017-08-21T01:41:47.299Z,30.5
2017-08-21T01:42:42.019Z,30.5
2017-08-21T01:43:43.165Z,30.4
2017-08-21T01:44:42.109Z,30.5
2017-08-21T01:45:42.947Z,30.5
2017-08-21T01:46:41.667Z,30.5
2017-08-21T01:47:41.147Z,30.5
2017-08-21T01:48:44.451Z,30.5
2017-08-21T01:49:43.981Z,30.5
2017-08-21T01:50:41.199Z,30.5
2017-08-21T01:51:44.110Z,30.5
2017-08-21T01:52:41.317Z,30.5
2017-08-21T01:53:46.504Z,30.5
2017-08-21T01:54:44.409Z,30.5
2017-08-21T01:55:46.755Z,30.5
2017-08-21T01:56:46.454Z,30.5
2017-08-21T01:57:46.553Z,30.5
2017-08-21T01:58:46.817Z,30.4
2017-08-21T01:59:47.177Z,30.5
2017-08-21T02:00:45.179Z,30.5
2017-08-21T02:01:42.712Z,30.5
2017-08-21T02:02:41.774Z,30.4
2017-08-21T02:03:45.526Z,30.5
2017-08-21T02:04:43.194Z,30.5
2017-08-21T02:05:47.404Z,30.4
2017-08-21T02:06:48.411Z,30.5
2017-08-21T02:07:42.290Z,30.5
2017-08-21T02:08:42.834Z,30.5
2017-08-21T02:09:44.273Z,30.4
2017-08-21T02:10:43.871Z,30.4
2017-08-21T02:11:47.405Z,30.4
2017-08-21T02:12:47.537Z,30.5
2017-08-21T02:13:46.278Z,30.4
2017-08-21T02:14:47.604Z,30.4
2017-08-21T02:15:42.681Z,30.4
2017-08-21T02:16:42.415Z,30.4
2017-08-21T02:17:42.445Z,30.4
2017-08-21T02:18:47.770Z,30.4
2017-08-21T02:19:47.737Z,30.4
2017-08-21T02:20:47.769Z,30.4
2017-08-21T02:21:42.590Z,30.4
2017-08-21T02:22:43.076Z,30.4
2017-08-21T02:23:43.629Z,30.4
2017-08-21T02:24:42.973Z,30.4
2017-08-21T02:25:48.051Z,30.4
2017-08-21T02:26:43.151Z,30.4
2017-08-21T02:27:43.175Z,30.4
2017-08-21T02:28:48.099Z,30.4
2017-08-21T02:29:48.012Z,30.4
2017-08-21T02:30:43.390Z,30.4
2017-08-21T02:31:46.285Z,30.4
2017-08-21T02:32:43.627Z,30.4
2017-08-21T02:33:43.155Z,30.4
2017-08-21T02:34:46.316Z,30.4
2017-08-21T02:35:48.635Z,30.4
2017-08-21T02:36:48.639Z,30.4
2017-08-21T02:37:43.426Z,30.4
2017-08-21T02:38:43.411Z,30.4
2017-08-21T02:39:43.496Z,30.4
2017-08-21T02:40:48.832Z,30.4
2017-08-21T02:41:43.579Z,30.4
2017-08-21T02:42:48.952Z,30.4
2017-08-21T02:43:43.783Z,30.4
2017-08-21T02:44:46.625Z,30.4
2017-08-21T02:45:44.148Z,30.4
2017-08-21T02:46:43.912Z,30.4
2017-08-21T02:47:48.948Z,30.4
2017-08-21T02:48:47.219Z,30.4
2017-08-21T02:49:44.125Z,30.4
2017-08-21T02:50:49.429Z,30.4
2017-08-21T02:51:49.099Z,30.4
2017-08-21T02:52:49.184Z,30.4
2017-08-21T02:53:44.293Z,30.4
2017-08-21T02:54:49.320Z,30.4
2017-08-21T02:55:47.595Z,30.4
2017-08-21T02:56:44.769Z,30.4
2017-08-21T02:57:44.852Z,30.4
2017-08-21T02:58:47.768Z,30.4
2017-08-21T02:59:45.012Z,30.4
2017-08-21T03:00:45.109Z,30.4
2017-08-21T03:01:44.944Z,30.3
2017-08-21T03:02:50.417Z,30.4
2017-08-21T03:03:45.421Z,30.3
2017-08-21T03:04:45.232Z,30.4
2017-08-21T03:05:45.523Z,30.4
2017-08-21T03:06:45.365Z,30.4
2017-08-21T03:07:45.368Z,30.4
2017-08-21T03:08:45.121Z,30.4
2017-08-21T03:09:50.475Z,30.4
2017-08-21T03:10:50.528Z,30.4
2017-08-21T03:11:45.297Z,30.3
2017-08-21T03:12:45.591Z,30.3
2017-08-21T03:13:48.236Z,30.3
2017-08-21T03:14:45.721Z,30.3
2017-08-21T03:15:45.491Z,30.3
2017-08-21T03:16:45.489Z,30.3
2017-08-21T03:17:45.543Z,30.3
2017-08-21T03:18:45.628Z,30.3
2017-08-21T03:19:45.684Z,30.3
2017-08-21T03:20:46.007Z,30.3
2017-08-21T03:21:46.044Z,30.3
2017-08-21T03:22:48.725Z,30.3
2017-08-21T03:23:45.898Z,30.3
2017-08-21T03:24:45.939Z,30.3
2017-08-21T03:25:49.177Z,30.3
2017-08-21T03:26:51.262Z,30.3
2017-08-21T03:27:50.976Z,30.3
2017-08-21T03:28:48.927Z,30.3
2017-08-21T03:29:46.424Z,30.3
2017-08-21T03:30:46.280Z,30.3
2017-08-21T03:31:46.277Z,30.3
2017-08-21T03:32:46.341Z,30.3
2017-08-21T03:33:51.365Z,30.3
2017-08-21T03:34:49.621Z,30.3
2017-08-21T03:35:51.508Z,30.3
2017-08-21T03:36:51.859Z,30.3
2017-08-21T03:37:51.577Z,30.3
2017-08-21T03:38:46.641Z,30.3
2017-08-21T03:39:51.693Z,30.3
2017-08-21T03:40:46.770Z,30.3
2017-08-21T03:41:52.104Z,30.3
2017-08-21T03:42:52.247Z,30.3
2017-08-21T03:43:46.954Z,30.3
2017-08-21T03:44:47.032Z,30.3
2017-08-21T03:45:49.932Z,30.3
2017-08-21T03:46:47.421Z,30.3
2017-08-21T03:47:52.137Z,30.3
2017-08-21T03:48:52.168Z,30.3
2017-08-21T03:49:47.523Z,30.3
2017-08-21T03:50:50.468Z,30.3
2017-08-21T03:51:50.218Z,30.3
2017-08-21T03:52:47.432Z,30.3
2017-08-21T03:53:47.536Z,30.3
2017-08-21T03:54:50.435Z,30.3
2017-08-21T03:55:50.490Z,30.3
2017-08-21T03:56:47.712Z,30.3
2017-08-21T03:57:48.040Z,30.3
2017-08-21T03:58:52.788Z,30.3
2017-08-21T03:59:47.857Z,30.3
2017-08-21T04:00:48.200Z,30.3
2017-08-21T04:01:48.011Z,30.2
2017-08-21T04:02:53.037Z,30.3
2017-08-21T04:03:51.278Z,30.2
2017-08-21T04:04:48.504Z,30.3
2017-08-21T04:05:48.204Z,30.3
2017-08-21T04:06:48.557Z,30.2
2017-08-21T04:07:51.186Z,30.3
2017-08-21T04:08:48.424Z,30.3
2017-08-21T04:09:48.812Z,30.3
2017-08-21T04:10:48.917Z,30.3
2017-08-21T04:11:48.608Z,30.3
2017-08-21T04:12:53.981Z,30.3
2017-08-21T04:13:51.965Z,30.3
2017-08-21T04:14:51.926Z,30.3
2017-08-21T04:15:49.105Z,30.3
2017-08-21T04:16:49.190Z,30.2
2017-08-21T04:17:49.258Z,30.3
2017-08-21T04:18:49.016Z,30.2
2017-08-21T04:19:52.265Z,30.3
2017-08-21T04:20:49.471Z,30.2
2017-08-21T04:21:49.581Z,30.2
2017-08-21T04:22:54.217Z,30.2
2017-08-21T04:23:54.627Z,30.2
2017-08-21T04:24:54.374Z,30.2
2017-08-21T04:25:54.442Z,30.2
2017-08-21T04:26:54.551Z,30.2
2017-08-21T04:27:49.878Z,30.1
2017-08-21T04:28:54.606Z,30
2017-08-21T04:29:49.982Z,29.9
2017-08-21T04:30:49.664Z,29.7
2017-08-21T04:31:55.010Z,29.6
2017-08-21T04:32:52.670Z,29.5
2017-08-21T04:33:50.195Z,29.4
2017-08-21T04:34:52.732Z,29.3
2017-08-21T04:35:53.151Z,29.2
2017-08-21T04:36:50.310Z,29
2017-08-21T04:37:50.029Z,28.9
2017-08-21T04:38:52.956Z,28.8
2017-08-21T04:39:53.362Z,28.6
2017-08-21T04:40:55.575Z,28.5
2017-08-21T04:41:53.441Z,28.5
2017-08-21T04:42:50.326Z,28.4
2017-08-21T04:43:51.092Z,28.4
2017-08-21T04:44:50.699Z,28.3
2017-08-21T04:45:50.505Z,28.2
2017-08-21T04:46:50.919Z,28.2
2017-08-21T04:47:53.839Z,28.1
2017-08-21T04:48:50.697Z,28.1
2017-08-21T04:49:53.862Z,28.1
2017-08-21T04:50:56.016Z,28
2017-08-21T04:51:53.657Z,28
2017-08-21T04:52:53.697Z,28
2017-08-21T04:53:54.135Z,28
2017-08-21T04:54:50.973Z,27.9
2017-08-21T04:55:51.326Z,27.9
2017-08-21T04:56:52.342Z,27.8
2017-08-21T04:57:54.363Z,27.8
2017-08-21T04:58:54.073Z,27.7
2017-08-21T04:59:54.195Z,27.7
2017-08-21T05:00:56.691Z,27.7
2017-08-21T05:01:51.490Z,27.7
2017-08-21T05:02:56.795Z,27.8
2017-08-21T05:03:51.883Z,27.8
2017-08-21T05:04:53.017Z,27.9
2017-08-21T05:05:57.225Z,28
2017-08-21T05:06:57.022Z,28
2017-08-21T05:07:52.042Z,28.1
2017-08-21T05:08:57.112Z,28.1
2017-08-21T05:09:57.147Z,28.1
2017-08-21T05:10:52.156Z,28.2
2017-08-21T05:11:56.818Z,28.3
2017-08-21T05:12:54.753Z,28.3
2017-08-21T05:13:53.038Z,28.4
2017-08-21T05:14:57.310Z,28.4
2017-08-21T05:15:58.072Z,28.5
2017-08-21T05:16:57.535Z,28.5
2017-08-21T05:17:52.220Z,28.5
2017-08-21T05:18:52.344Z,28.6
2017-08-21T05:19:52.666Z,28.6
2017-08-21T05:20:52.736Z,28.7
2017-08-21T05:21:55.625Z,28.7
2017-08-21T05:22:55.345Z,28.7
2017-08-21T05:23:52.575Z,28.8
2017-08-21T05:24:52.907Z,28.8
2017-08-21T05:25:52.946Z,28.8
2017-08-21T05:26:52.995Z,28.9
2017-08-21T05:27:55.548Z,28.9
2017-08-21T05:28:58.025Z,28.9
2017-08-21T05:29:58.157Z,28.9
2017-08-21T05:30:53.198Z,28.9
2017-08-21T05:31:53.247Z,29
2017-08-21T05:32:53.009Z,29
2017-08-21T05:33:53.053Z,29
2017-08-21T05:34:54.354Z,29
2017-08-21T05:35:58.550Z,29
2017-08-21T05:36:59.324Z,29
2017-08-21T05:37:56.619Z,29
2017-08-21T05:38:54.004Z,29
2017-08-21T05:39:54.513Z,29
2017-08-21T05:40:54.046Z,29.1
2017-08-21T05:41:53.658Z,29.1
2017-08-21T05:42:56.565Z,29.1
2017-08-21T05:43:58.692Z,29.1
2017-08-21T05:44:53.615Z,29.1
2017-08-21T05:45:53.659Z,29.1
2017-08-21T05:46:53.869Z,29.1
2017-08-21T05:47:56.611Z,29.1
2017-08-21T05:48:56.882Z,29.2
2017-08-21T05:49:53.882Z,29.2
2017-08-21T05:50:58.898Z,29.2
2017-08-21T05:51:59.301Z,29.2
2017-08-21T05:52:54.376Z,29.2
2017-08-21T05:53:54.457Z,29.2
2017-08-21T05:54:59.423Z,29.3
2017-08-21T05:55:54.630Z,29.3
2017-08-21T05:56:54.227Z,29.3
2017-08-21T05:57:57.531Z,29.3
2017-08-21T05:58:54.464Z,29.3
2017-08-21T05:59:59.887Z,29.3
2017-08-21T06:00:59.452Z,29.3
2017-08-21T06:01:59.894Z,29.4
2017-08-21T06:02:59.921Z,29.4
2017-08-21T06:03:55.023Z,29.4
2017-08-21T06:05:01.568Z,29.4
2017-08-21T06:05:54.826Z,29.4
2017-08-21T06:06:55.609Z,29.4
2017-08-21T06:08:00.429Z,29.4
2017-08-21T06:08:55.655Z,29.4
2017-08-21T06:09:55.348Z,29.5
2017-08-21T06:10:54.955Z,29.5
2017-08-21T06:11:55.109Z,29.5
2017-08-21T06:12:58.479Z,29.5
2017-08-21T06:13:55.503Z,29.5
2017-08-21T06:14:57.847Z,29.5
2017-08-21T06:15:58.122Z,29.6
2017-08-21T06:16:55.570Z,29.6
2017-08-21T06:17:55.976Z,29.6
2017-08-21T06:18:59.007Z,29.6
2017-08-21T06:19:59.453Z,29.6
2017-08-21T06:20:58.739Z,29.6
2017-08-21T06:22:01.445Z,29.6
2017-08-21T06:23:02.918Z,29.7
2017-08-21T06:23:55.853Z,29.7
2017-08-21T06:24:55.872Z,29.7
2017-08-21T06:25:55.979Z,29.7
2017-08-21T06:27:01.225Z,29.8
2017-08-21T06:27:56.256Z,29.8
2017-08-21T06:29:01.053Z,29.8
2017-08-21T06:30:01.482Z,29.8
2017-08-21T06:30:57.430Z,29.9
2017-08-21T06:31:57.874Z,29.9
2017-08-21T06:33:01.098Z,29.9
2017-08-21T06:34:00.736Z,29.9
2017-08-21T06:35:04.598Z,29.9
2017-08-21T06:35:59.572Z,29.9
2017-08-21T06:37:00.636Z,29.9
2017-08-21T06:38:00.808Z,29.9
2017-08-21T06:38:56.635Z,29.9
2017-08-21T06:40:02.301Z,29.9
2017-08-21T06:40:58.607Z,30
2017-08-21T06:42:01.329Z,30
2017-08-21T06:42:57.561Z,29.9
2017-08-21T06:44:04.097Z,30
2017-08-21T06:44:58.407Z,30
2017-08-21T06:46:03.418Z,30
2017-08-21T06:46:58.721Z,30
2017-08-21T06:47:57.520Z,30
2017-08-21T06:49:02.901Z,29.8
2017-08-21T06:49:57.499Z,29.4
2017-08-21T06:50:58.274Z,29
2017-08-21T06:51:58.241Z,28.7
2017-08-21T06:53:00.279Z,28.6
2017-08-21T06:53:57.671Z,28.2
2017-08-21T06:55:00.583Z,27.9
2017-08-21T06:56:00.312Z,27.6
2017-08-21T06:56:57.646Z,27.4
2017-08-21T06:57:58.065Z,27.2
2017-08-21T06:58:57.998Z,27.1
2017-08-21T07:00:00.937Z,27
2017-08-21T07:00:58.701Z,26.9
2017-08-21T07:01:58.095Z,26.8
2017-08-21T07:03:12.568Z,26.6
2017-08-21T07:04:09.871Z,26.5
2017-08-21T07:05:08.040Z,26.4
2017-08-21T07:06:06.624Z,26.2
2017-08-21T07:07:07.056Z,26.2
2017-08-21T07:08:10.234Z,26.1
2017-08-21T07:09:13.406Z,26
2017-08-21T07:10:09.974Z,25.9
2017-08-21T07:11:14.918Z,25.9
2017-08-21T07:13:12.334Z,25.9
2017-08-21T07:14:14.947Z,25.9
2017-08-21T07:15:11.569Z,25.9
2017-08-21T07:16:11.838Z,26
2017-08-21T07:17:15.732Z,26
2017-08-21T07:18:14.595Z,25.9
2017-08-21T07:19:15.544Z,25.9
2017-08-21T07:20:15.797Z,25.9
2017-08-21T07:21:03.620Z,25.9
2017-08-21T07:22:00.981Z,25.9
2017-08-21T07:23:06.702Z,25.9
2017-08-21T07:24:05.290Z,25.9
2017-08-21T07:25:01.220Z,25.9
2017-08-21T07:26:04.424Z,25.9
2017-08-21T07:27:00.607Z,25.9
2017-08-21T07:28:02.900Z,25.9
2017-08-21T07:28:59.372Z,25.9
2017-08-21T07:29:59.174Z,26
2017-08-21T07:31:01.941Z,26
2017-08-21T07:32:02.565Z,26
2017-08-21T07:33:02.596Z,26.1
2017-08-21T07:33:59.399Z,26.1
2017-08-21T07:35:02.620Z,26.2
2017-08-21T07:35:59.740Z,26.3
2017-08-21T07:37:03.494Z,26.3
2017-08-21T07:38:00.254Z,26.3
2017-08-21T07:39:03.136Z,26.3
2017-08-21T07:40:00.511Z,26.4
2017-08-21T07:41:05.970Z,26.4
2017-08-21T07:42:02.695Z,26.5
2017-08-21T07:43:00.101Z,26.5
2017-08-21T07:44:02.698Z,26.6
2017-08-21T07:45:03.172Z,26.6
2017-08-21T07:46:05.543Z,26.7
2017-08-21T07:47:03.172Z,26.7
2017-08-21T07:48:05.340Z,26.8
2017-08-21T07:49:00.578Z,26.9
2017-08-21T07:50:05.193Z,26.9
2017-08-21T07:51:00.503Z,26.9
2017-08-21T07:52:04.654Z,26.9
2017-08-21T07:53:03.216Z,27
2017-08-21T07:54:00.687Z,27
2017-08-21T07:55:01.230Z,27
2017-08-21T07:56:00.830Z,27
2017-08-21T07:57:05.493Z,27.1
2017-08-21T07:58:00.889Z,27.2
2017-08-21T07:59:00.890Z,27.2
2017-08-21T08:00:01.560Z,27.3
2017-08-21T08:01:05.747Z,27.3
2017-08-21T08:02:00.753Z,27.4
2017-08-21T08:03:06.090Z,27.4
2017-08-21T08:04:06.231Z,27.4
2017-08-21T08:05:01.776Z,27.5
2017-08-21T08:06:00.980Z,27.5
2017-08-21T08:07:01.318Z,27.6
2017-08-21T08:08:01.155Z,27.7
2017-08-21T08:09:01.496Z,27.7
2017-08-21T08:10:06.992Z,27.8
2017-08-21T08:11:01.557Z,27.8
2017-08-21T08:12:02.875Z,27.8
2017-08-21T08:13:07.171Z,27.8
2017-08-21T08:14:05.216Z,27.9
2017-08-21T08:15:01.475Z,27.9
2017-08-21T08:16:06.816Z,28
2017-08-21T08:17:01.544Z,28
2017-08-21T08:18:07.599Z,28.1
2017-08-21T08:19:01.996Z,28.1
2017-08-21T08:20:06.993Z,28.2
2017-08-21T08:21:07.494Z,28.3
2017-08-21T08:22:04.591Z,28.3
2017-08-21T08:23:02.089Z,28.4
2017-08-21T08:24:01.812Z,28.4
2017-08-21T08:25:05.076Z,28.5
2017-08-21T08:26:02.310Z,28.5
2017-08-21T08:27:02.468Z,28.6
2017-08-21T08:28:02.140Z,28.6
2017-08-21T08:29:05.974Z,28.6
2017-08-21T08:30:03.194Z,28.7
2017-08-21T08:31:08.560Z,28.7
2017-08-21T08:32:07.697Z,28.7
2017-08-21T08:33:05.645Z,28.8
2017-08-21T08:34:07.888Z,28.8
2017-08-21T08:35:02.652Z,28.9
2017-08-21T08:36:07.589Z,28.9
2017-08-21T08:37:02.683Z,28.9
2017-08-21T08:38:02.888Z,29
2017-08-21T08:39:02.903Z,29
2017-08-21T08:40:05.778Z,29.1
2017-08-21T08:41:07.939Z,29.1
2017-08-21T08:42:02.901Z,29.1
2017-08-21T08:43:02.895Z,29.2
2017-08-21T08:44:03.280Z,29.2
2017-08-21T08:45:05.941Z,29.2
2017-08-21T08:46:03.204Z,29.2
2017-08-21T08:47:03.512Z,29.2
2017-08-21T08:48:06.125Z,29.2
2017-08-21T08:49:08.677Z,29.2
2017-08-21T08:50:06.266Z,29.3
2017-08-21T08:51:06.733Z,29.2
2017-08-21T08:52:06.094Z,29.2
2017-08-21T08:53:14.458Z,29.2
2017-08-21T08:54:06.693Z,29.3
2017-08-21T08:55:06.882Z,29.3
2017-08-21T08:56:07.706Z,29.3
2017-08-21T08:57:06.655Z,29.3
2017-08-21T08:58:03.760Z,29.3
2017-08-21T08:59:03.954Z,29.3
2017-08-21T09:00:09.378Z,29.2
2017-08-21T09:01:03.967Z,29.2
2017-08-21T09:02:07.127Z,29.1
2017-08-21T09:03:06.792Z,28.9
2017-08-21T09:04:04.005Z,29.1
2017-08-21T09:05:10.068Z,29.1
2017-08-21T09:06:09.109Z,29.2
2017-08-21T09:07:07.340Z,29.2
2017-08-21T09:08:07.095Z,29.2
2017-08-21T09:09:04.217Z,29.3
2017-08-21T09:10:05.540Z,29.3
2017-08-21T09:11:11.334Z,29.3
2017-08-21T09:12:07.595Z,29.4
2017-08-21T09:13:04.703Z,29.4
2017-08-21T09:14:04.476Z,29.4
2017-08-21T09:15:04.562Z,29.4
2017-08-21T09:16:07.494Z,29.4
2017-08-21T09:17:09.716Z,29.4
2017-08-21T09:18:04.883Z,29.4
2017-08-21T09:19:05.188Z,29.4
2017-08-21T09:20:05.826Z,29.4
2017-08-21T09:21:10.725Z,29.4
2017-08-21T09:22:08.235Z,29.4
2017-08-21T09:23:05.100Z,29.3
2017-08-21T09:24:05.198Z,29.4
2017-08-21T09:25:06.801Z,29.4
2017-08-21T09:26:12.098Z,29.4
2017-08-21T09:27:06.068Z,29.5
2017-08-21T09:28:06.093Z,29.5
2017-08-21T09:29:16.058Z,29.5
2017-08-21T09:30:10.491Z,29.5
2017-08-21T09:31:10.757Z,29.5
2017-08-21T09:32:09.493Z,29.6
2017-08-21T09:33:08.863Z,29.6
2017-08-21T09:34:06.718Z,29.6
2017-08-21T09:35:05.911Z,29.7
2017-08-21T09:36:09.286Z,29.8
2017-08-21T09:37:06.233Z,29.8
2017-08-21T09:38:05.945Z,29.8
2017-08-21T09:39:10.187Z,29.7
2017-08-21T09:40:11.289Z,29.7
2017-08-21T09:41:09.002Z,29.7
2017-08-21T09:42:11.970Z,29.7
2017-08-21T09:43:06.175Z,29.7
2017-08-21T09:44:11.508Z,29.7
2017-08-21T09:45:06.238Z,29.7
2017-08-21T09:46:06.338Z,29.8
2017-08-21T09:47:07.655Z,29.8
2017-08-21T09:48:07.820Z,29.8
2017-08-21T09:49:12.321Z,29.8
2017-08-21T09:50:06.791Z,29.9
2017-08-21T09:51:07.401Z,29.9
2017-08-21T09:52:13.643Z,29.9
2017-08-21T09:53:13.831Z,29.8
2017-08-21T09:54:08.504Z,29.8
2017-08-21T09:55:10.630Z,29.7
2017-08-21T09:56:12.676Z,29.7
2017-08-21T09:57:06.702Z,29.7
2017-08-21T09:58:07.262Z,29.7
2017-08-21T09:59:09.746Z,29.7
2017-08-21T10:00:11.888Z,29.7
2017-08-21T10:01:07.513Z,29.7
2017-08-21T10:02:10.112Z,29.8
2017-08-21T10:03:07.325Z,29.8
2017-08-21T10:04:08.523Z,29.8
2017-08-21T10:05:07.110Z,29.7
2017-08-21T10:06:07.331Z,29.8
2017-08-21T10:07:07.635Z,29.8
2017-08-21T10:08:07.382Z,29.8
2017-08-21T10:09:11.659Z,29.8
2017-08-21T10:10:07.734Z,29.8
2017-08-21T10:11:13.395Z,29.9
2017-08-21T10:12:10.781Z,29.9
2017-08-21T10:13:13.598Z,29.9
2017-08-21T10:14:13.282Z,29.9
2017-08-21T10:15:08.113Z,29.9
2017-08-21T10:16:08.341Z,29.9
2017-08-21T10:17:08.764Z,30
2017-08-21T10:18:11.343Z,30
2017-08-21T10:19:08.259Z,30
2017-08-21T10:20:14.243Z,30
2017-08-21T10:21:10.778Z,30
2017-08-21T10:22:12.905Z,30
2017-08-21T10:23:08.379Z,30.1
2017-08-21T10:24:13.058Z,30.1
2017-08-21T10:25:08.247Z,30.1
2017-08-21T10:26:08.196Z,30.2
2017-08-21T10:27:13.789Z,30.2
2017-08-21T10:28:11.508Z,30.2
2017-08-21T10:29:08.704Z,30.1
2017-08-21T10:30:13.985Z,30.1
2017-08-21T10:31:09.125Z,30
2017-08-21T10:32:09.449Z,30
2017-08-21T10:33:08.889Z,29.9
2017-08-21T10:34:12.487Z,29.9
2017-08-21T10:35:12.473Z,29.9
2017-08-21T10:36:08.950Z,29.9
2017-08-21T10:37:08.949Z,29.9
2017-08-21T10:38:08.735Z,29.9
2017-08-21T10:39:11.702Z,29.9
2017-08-21T10:40:12.296Z,29.9
2017-08-21T10:41:09.746Z,29.9
2017-08-21T10:42:13.935Z,29.9
2017-08-21T10:43:14.391Z,29.9
2017-08-21T10:44:09.213Z,29.9
2017-08-21T10:45:08.921Z,29.9
2017-08-21T10:46:09.517Z,29.9
2017-08-21T10:47:08.971Z,29.9
2017-08-21T10:48:11.915Z,29.9
2017-08-21T10:49:13.251Z,29.8
2017-08-21T10:50:14.521Z,29.8
2017-08-21T10:51:09.592Z,29.8
2017-08-21T10:52:14.947Z,29.8
2017-08-21T10:53:09.689Z,29.7
2017-08-21T10:54:14.590Z,29.7
2017-08-21T10:55:15.158Z,29.7
2017-08-21T10:56:14.603Z,29.7
2017-08-21T10:57:13.838Z,29.8
2017-08-21T10:58:10.875Z,29.8
2017-08-21T10:59:14.068Z,29.9
2017-08-21T11:00:14.917Z,29.9
2017-08-21T11:01:18.166Z,29.9
2017-08-21T11:02:16.803Z,29.9
2017-08-21T11:03:22.374Z,29.9
2017-08-21T11:04:21.849Z,30
2017-08-21T11:05:21.447Z,30
2017-08-21T11:07:28.363Z,30
2017-08-21T11:08:20.077Z,30
2017-08-21T11:09:30.059Z,30
2017-08-21T11:10:22.740Z,30
2017-08-21T11:11:17.492Z,29.9
2017-08-21T11:12:28.142Z,29.9
2017-08-21T11:13:27.576Z,29.9
2017-08-21T11:14:23.708Z,29.9
2017-08-21T11:15:25.132Z,29.9
2017-08-21T11:16:27.417Z,29.9
2017-08-21T11:17:18.873Z,29.9
2017-08-21T11:18:22.101Z,29.9
2017-08-21T11:19:24.127Z,29.9
2017-08-21T11:20:23.822Z,30
2017-08-21T11:21:31.975Z,30
2017-08-21T11:22:22.210Z,30
2017-08-21T11:23:25.802Z,30
2017-08-21T11:24:20.812Z,30
2017-08-21T11:25:24.099Z,30.1
2017-08-21T11:26:27.012Z,30.1
2017-08-21T11:27:27.140Z,30.1
2017-08-21T11:28:26.023Z,30.1
2017-08-21T11:29:23.447Z,30.1
2017-08-21T11:30:14.550Z,30.1
2017-08-21T11:31:17.605Z,30.1
2017-08-21T11:32:16.755Z,30.1
2017-08-21T11:33:14.910Z,30.1
2017-08-21T11:34:17.772Z,30.1
2017-08-21T11:35:12.200Z,30.2
2017-08-21T11:36:16.947Z,30.1
2017-08-21T11:37:12.115Z,30.1
2017-08-21T11:38:14.804Z,30.2
2017-08-21T11:39:17.980Z,30.2
2017-08-21T11:40:13.036Z,30.2
2017-08-21T11:41:12.987Z,30.2
2017-08-21T11:42:21.512Z,30.2
2017-08-21T11:43:22.185Z,30.2
2017-08-21T11:44:24.182Z,30.3
2017-08-21T11:45:21.509Z,30.3
2017-08-21T11:46:16.386Z,30.3
2017-08-21T11:47:16.302Z,30.3
2017-08-21T11:48:15.148Z,30.3
2017-08-21T11:49:18.617Z,30.3
2017-08-21T11:50:15.653Z,30.4
2017-08-21T11:51:13.454Z,30.4
2017-08-21T11:52:15.848Z,30.4
2017-08-21T11:53:13.635Z,30.4
2017-08-21T11:54:13.386Z,30.5
2017-08-21T11:55:13.118Z,30.5
2017-08-21T11:56:18.267Z,30.5
2017-08-21T11:57:18.747Z,30.5
2017-08-21T11:58:17.696Z,30.5
2017-08-21T11:59:14.053Z,30.5
2017-08-21T12:00:16.013Z,30.5
2017-08-21T12:01:15.378Z,30.5
2017-08-21T12:02:13.844Z,30.5
2017-08-21T12:03:14.665Z,30.6
2017-08-21T12:04:13.879Z,30.6
2017-08-21T12:05:17.998Z,30.6
2017-08-21T12:06:13.819Z,30.7
2017-08-21T12:07:13.082Z,30.7
2017-08-21T12:08:16.308Z,30.7
2017-08-21T12:09:14.615Z,30.6
2017-08-21T12:10:20.403Z,30.6
2017-08-21T12:11:18.568Z,30.6
2017-08-21T12:12:16.641Z,30.5
2017-08-21T12:13:16.049Z,30.6
2017-08-21T12:14:14.315Z,30.6
2017-08-21T12:15:18.568Z,30.6
2017-08-21T12:16:16.701Z,30.6
2017-08-21T12:17:20.661Z,30.6
2017-08-21T12:18:13.868Z,30.7
2017-08-21T12:19:15.428Z,30.7
2017-08-21T12:20:17.542Z,30.7
2017-08-21T12:21:25.842Z,30.7
2017-08-21T12:22:14.440Z,30.7
2017-08-21T12:23:19.818Z,30.7
2017-08-21T12:24:16.986Z,30.7
2017-08-21T12:25:17.731Z,30.7
2017-08-21T12:26:13.872Z,30.8
2017-08-21T12:27:15.513Z,30.8
2017-08-21T12:28:19.821Z,30.8
2017-08-21T12:29:19.712Z,30.8
2017-08-21T12:30:18.643Z,30.8
2017-08-21T12:31:17.438Z,30.8
2017-08-21T12:32:17.166Z,30.8
2017-08-21T12:33:15.537Z,30.9
2017-08-21T12:34:15.253Z,30.9
2017-08-21T12:35:19.592Z,30.9
2017-08-21T12:36:14.197Z,30.9
2017-08-21T12:37:17.420Z,30.9
2017-08-21T12:38:14.722Z,30.9
2017-08-21T12:39:20.049Z,30.9
2017-08-21T12:40:18.931Z,30.9
2017-08-21T12:41:33.878Z,30.9
2017-08-21T12:42:21.411Z,30.9
2017-08-21T12:43:20.320Z,30.9
2017-08-21T12:44:20.329Z,30.9
2017-08-21T12:45:20.899Z,30.9
2017-08-21T12:46:19.461Z,30.9
2017-08-21T12:47:21.423Z,31
2017-08-21T12:48:19.686Z,31
2017-08-21T12:49:22.930Z,31
2017-08-21T12:50:16.375Z,31
2017-08-21T12:51:16.762Z,31.1
2017-08-21T12:52:19.225Z,31.1
2017-08-21T12:53:17.076Z,31.1
2017-08-21T12:54:15.246Z,31.1
2017-08-21T12:55:16.194Z,31.1
2017-08-21T12:56:20.405Z,31.1
2017-08-21T12:57:15.999Z,31.1
2017-08-21T12:58:16.295Z,31.1
2017-08-21T12:59:17.309Z,31.1
2017-08-21T13:00:20.885Z,31.1
2017-08-21T13:01:18.817Z,31.1
2017-08-21T13:02:18.271Z,31.1
2017-08-21T13:03:17.845Z,31.1
2017-08-21T13:04:22.458Z,31.1
2017-08-21T13:05:19.580Z,31.1
2017-08-21T13:06:22.788Z,31.2
2017-08-21T13:07:22.929Z,31.2
2017-08-21T13:08:15.968Z,31.2
2017-08-21T13:09:16.615Z,31.2
2017-08-21T13:10:23.205Z,31.3
2017-08-21T13:11:23.982Z,31.3
2017-08-21T13:12:22.278Z,31.3
2017-08-21T13:13:19.013Z,31.3
2017-08-21T13:14:17.592Z,31.4
2017-08-21T13:15:19.893Z,31.4
2017-08-21T13:16:16.972Z,31.4
2017-08-21T13:17:20.197Z,31.4
2017-08-21T13:18:16.843Z,31.4
2017-08-21T13:19:20.834Z,31.4
2017-08-21T13:20:21.312Z,31.4
2017-08-21T13:21:23.921Z,31.4
2017-08-21T13:22:17.424Z,31.4
2017-08-21T13:23:17.658Z,31.4
2017-08-21T13:24:20.884Z,31.4
2017-08-21T13:25:21.456Z,31.4